Prescott Valley, AZ

6:23 PM MST on January 30, 2015 (GMT -0700)
Love | Change Station
CLOSE
Current Station
Airport
Location: Prescott,
Elevation: 5043 ft
Nearby Weather Stations

Elev 5043 ft 34.65 °N, 112.42 °W | Updated 30 minutes ago

Overcast
Overcast
46 °F
Feels Like 44 °F
N
5
Wind Variable Wind from South

Today
High -- | Low -- °F
--% Chance of Precip.
Yesterday
High -- | Low -- °F
Precip. -- in
7:28 AM 5:56 PM
Waxing Gibbous, 86% visible
Pressure 29.77 in
Visibility 5.0 miles
Clouds Scattered Clouds 600 ft
Overcast 1200 ft
Windchill 44 °F
Dew Point 45 °F
Humidity 96%
Rainfall 0.41 in
Snow Depth Not available.
UV 0 out of 12
Pollen .60 out of 12
Air Quality Not available.
Flu Activity Not available.
METAR KPRC 310053Z COR 17004KT 5SM BR SCT006 OVC012 08/07 A2987 RMK AO2 RAB05E16 SLP080 P0000 T00780072

More Conditions Fewer Conditions

Pressure 29.77 in
Visibility 5.0 miles
Clouds Scattered Clouds 600 ft
Overcast 1200 ft
Windchill 44 °F
Dew Point 45 °F
Humidity 96%
Rainfall 0.41 in
Snow Depth Not available.
UV 0 out of 12
Pollen .60 out of 12
Air Quality Not available.
Flu Activity Not available.
METAR KPRC 310053Z COR 17004KT 5SM BR SCT006 OVC012 08/07 A2987 RMK AO2 RAB05E16 SLP080 P0000 T00780072

More Conditions Fewer Conditions

10-Day Weather Forecast

Almanac

Astronomy

Jan. 30, 2015 Rise Set
Actual Time
Civil Twilight
Nautical Twilight
Astronomical Twilight
Moon
Length of Visible Light
Length of Day
Tomorrow will be .
, % of the Moon is Illuminated

Today's Extremes

State Highs State Lows

Community

WunderPhotos

Upload Photos

1,791,957 photos uploaded!

WunderBlogs® & News

Nearby

Air Quality

  Air Quality AQ Index Pollutant
Not available.

Snow Depth

Station Depth Elevation

Earthquake Activity

City Distance Mag. Time & Date
Minimum magnitude displayed is 2.5.

Coastal Water Temperatures

Place Temperature

Nearby Weather Stations